Redwood City, CA (94065)

2:45 PM PDT on September 02, 2015 (GMT -0700)
MorganHomes.com-Hallmark Park Area | | Change Station
CLOSE
Current Station
Personal Weather Station
Location: Belmont, CA
Elevation: 760 ft
Nearby Weather Stations

Elev 760 ft 37.52 °N, 122.26 °W | Updated 2 seconds ago

Partly Cloudy
Partly Cloudy
67.8 °F
Feels Like 67.8 °F
N
10.0
Wind Variable Wind from SSW
Gusts 10.0 mph

Today
High -- | Low -- °F
--% Chance of Precip.
Yesterday
High -- | Low -- °F
Precip. -- in
6:40 AM 7:36 PM
Waning Gibbous, 77% visible
Pressure 29.96 in
Visibility 10.0 miles
Clouds Few 2500 ft
Dew Point 41 °F
Humidity 37%
Rainfall 0.00 in
Snow Depth Not available.
UV 9 out of 12
Pollen 7.10 out of 12
Air Quality Not available.
Flu Activity Not available.
METAR KSQL 022047Z 22008G19KT 10SM FEW025 23/13 A2996
Pressure 29.96 in
Visibility 10.0 miles
Clouds Few 2500 ft
Dew Point 41 °F
Humidity 37%
Rainfall 0.00 in
Snow Depth Not available.
UV 9 out of 12
Pollen 7.10 out of 12
Air Quality Not available.
Flu Activity Not available.
METAR KSQL 022047Z 22008G19KT 10SM FEW025 23/13 A2996

10-Day Weather Forecast

×

Almanac

Astronomy

Sep. 02, 2015 Rise Set
Actual Time
Civil Twilight
Nautical Twilight
Astronomical Twilight
Moon
Length of Visible Light
Length of Day
Tomorrow will be .
, % of the Moon is Illuminated

Today's Extremes

State Highs State Lows

Community

WunderPhotos

Upload Photos

1,851,818 photos uploaded!

WunderBlogs® & News

Nearby

Air Quality

  Air Quality AQ Index Pollutant
Not available.

Snow Depth

Station Depth Elevation

Earthquake Activity

City Distance Mag. Time & Date
Minimum magnitude displayed is 2.5.

Coastal Water Temperatures

Place Temperature

Stations

Nearby Weather Stations

Station Location Temp. Windchill Dew Point Humidity Wind Precip. Elev Updated Type